sensor_id;sensor_type;location;lat;lon;timestamp;P1;durP1;ratioP1;P2;durP2;ratioP2
70787;SDS011;68385;47.752;19.100;2023-07-16T00:01:52;3.97;;;1.15;;
70787;SDS011;68385;47.752;19.100;2023-07-16T00:04:54;2.75;;;0.98;;
70787;SDS011;68385;47.752;19.100;2023-07-16T00:07:56;1.77;;;0.73;;
70787;SDS011;68385;47.752;19.100;2023-07-16T00:10:58;3.20;;;0.87;;
70787;SDS011;68385;47.752;19.100;2023-07-16T00:14:00;1.63;;;0.57;;
70787;SDS011;68385;47.752;19.100;2023-07-16T00:17:03;1.83;;;0.57;;
70787;SDS011;68385;47.752;19.100;2023-07-16T00:20:05;4.35;;;1.00;;
70787;SDS011;68385;47.752;19.100;2023-07-16T00:23:08;2.33;;;0.88;;
70787;SDS011;68385;47.752;19.100;2023-07-16T00:26:10;2.77;;;0.60;;
70787;SDS011;68385;47.752;19.100;2023-07-16T00:29:12;1.77;;;0.70;;
70787;SDS011;68385;47.752;19.100;2023-07-16T00:32:13;3.05;;;0.70;;
70787;SDS011;68385;47.752;19.100;2023-07-16T00:35:15;3.50;;;1.30;;
70787;SDS011;68385;47.752;19.100;2023-07-16T00:38:18;2.47;;;0.62;;
70787;SDS011;68385;47.752;19.100;2023-07-16T00:41:20;1.87;;;0.67;;
70787;SDS011;68385;47.752;19.100;2023-07-16T00:44:22;1.93;;;0.80;;
70787;SDS011;68385;47.752;19.100;2023-07-16T00:47:24;1.55;;;0.47;;
70787;SDS011;68385;47.752;19.100;2023-07-16T00:50:26;3.17;;;1.20;;
70787;SDS011;68385;47.752;19.100;2023-07-16T00:53:29;1.73;;;0.70;;
70787;SDS011;68385;47.752;19.100;2023-07-16T00:56:31;5.00;;;0.90;;
70787;SDS011;68385;47.752;19.100;2023-07-16T00:59:33;1.43;;;0.53;;
70787;SDS011;68385;47.752;19.100;2023-07-16T01:02:35;1.52;;;0.60;;
70787;SDS011;68385;47.752;19.100;2023-07-16T01:12:09;1.93;;;0.50;;
70787;SDS011;68385;47.752;19.100;2023-07-16T01:15:12;1.37;;;0.57;;
70787;SDS011;68385;47.752;19.100;2023-07-16T01:18:14;3.12;;;1.58;;
70787;SDS011;68385;47.752;19.100;2023-07-16T01:21:16;2.00;;;0.82;;
70787;SDS011;68385;47.752;19.100;2023-07-16T01:31:07;2.40;;;1.00;;
70787;SDS011;68385;47.752;19.100;2023-07-16T01:34:10;2.35;;;0.93;;
70787;SDS011;68385;47.752;19.100;2023-07-16T01:37:13;1.80;;;0.77;;
70787;SDS011;68385;47.752;19.100;2023-07-16T01:40:15;1.95;;;0.85;;
70787;SDS011;68385;47.752;19.100;2023-07-16T01:43:17;2.20;;;0.60;;
70787;SDS011;68385;47.752;19.100;2023-07-16T01:46:19;1.70;;;0.70;;
70787;SDS011;68385;47.752;19.100;2023-07-16T01:49:21;1.92;;;0.60;;
70787;SDS011;68385;47.752;19.100;2023-07-16T01:52:22;2.08;;;1.00;;
70787;SDS011;68385;47.752;19.100;2023-07-16T01:55:24;1.95;;;0.75;;
70787;SDS011;68385;47.752;19.100;2023-07-16T01:58:26;4.17;;;1.10;;
70787;SDS011;68385;47.752;19.100;2023-07-16T02:01:28;2.77;;;0.97;;
70787;SDS011;68385;47.752;19.100;2023-07-16T02:04:30;1.30;;;0.40;;
70787;SDS011;68385;47.752;19.100;2023-07-16T02:07:32;1.90;;;0.80;;
70787;SDS011;68385;47.752;19.100;2023-07-16T02:10:34;2.20;;;0.90;;
70787;SDS011;68385;47.752;19.100;2023-07-16T02:13:36;5.10;;;3.70;;
70787;SDS011;68385;47.752;19.100;2023-07-16T02:16:38;1.87;;;0.83;;
70787;SDS011;68385;47.752;19.100;2023-07-16T02:19:40;2.22;;;0.88;;
70787;SDS011;68385;47.752;19.100;2023-07-16T02:22:42;1.65;;;0.60;;
70787;SDS011;68385;47.752;19.100;2023-07-16T02:25:44;1.60;;;0.65;;
70787;SDS011;68385;47.752;19.100;2023-07-16T02:28:46;3.10;;;1.67;;
70787;SDS011;68385;47.752;19.100;2023-07-16T02:31:47;3.20;;;1.03;;
70787;SDS011;68385;47.752;19.100;2023-07-16T02:34:50;1.62;;;0.55;;
70787;SDS011;68385;47.752;19.100;2023-07-16T02:37:52;3.87;;;1.20;;
70787;SDS011;68385;47.752;19.100;2023-07-16T02:40:54;1.48;;;0.52;;
70787;SDS011;68385;47.752;19.100;2023-07-16T02:43:59;2.43;;;0.87;;
70787;SDS011;68385;47.752;19.100;2023-07-16T02:47:02;3.70;;;0.70;;
70787;SDS011;68385;47.752;19.100;2023-07-16T02:50:04;1.50;;;0.52;;
70787;SDS011;68385;47.752;19.100;2023-07-16T02:53:07;2.17;;;0.50;;
70787;SDS011;68385;47.752;19.100;2023-07-16T02:56:09;1.90;;;0.62;;
70787;SDS011;68385;47.752;19.100;2023-07-16T02:59:11;2.00;;;0.77;;
70787;SDS011;68385;47.752;19.100;2023-07-16T03:02:13;2.23;;;1.17;;
70787;SDS011;68385;47.752;19.100;2023-07-16T03:05:15;2.28;;;0.62;;
70787;SDS011;68385;47.752;19.100;2023-07-16T03:08:18;1.67;;;0.80;;
70787;SDS011;68385;47.752;19.100;2023-07-16T03:11:21;2.55;;;0.65;;
70787;SDS011;68385;47.752;19.100;2023-07-16T03:14:22;1.53;;;0.60;;
70787;SDS011;68385;47.752;19.100;2023-07-16T03:17:24;1.53;;;0.67;;
70787;SDS011;68385;47.752;19.100;2023-07-16T03:20:27;2.12;;;0.80;;
70787;SDS011;68385;47.752;19.100;2023-07-16T03:23:29;1.60;;;0.52;;
70787;SDS011;68385;47.752;19.100;2023-07-16T03:26:31;2.12;;;0.68;;
70787;SDS011;68385;47.752;19.100;2023-07-16T03:29:33;2.50;;;0.73;;
70787;SDS011;68385;47.752;19.100;2023-07-16T03:32:35;1.03;;;0.30;;
70787;SDS011;68385;47.752;19.100;2023-07-16T03:35:53;1.60;;;0.47;;
70787;SDS011;68385;47.752;19.100;2023-07-16T03:38:55;2.55;;;0.65;;
70787;SDS011;68385;47.752;19.100;2023-07-16T03:41:57;1.67;;;0.68;;
70787;SDS011;68385;47.752;19.100;2023-07-16T03:44:59;1.47;;;0.50;;
70787;SDS011;68385;47.752;19.100;2023-07-16T03:48:00;1.70;;;0.60;;
70787;SDS011;68385;47.752;19.100;2023-07-16T03:51:02;4.30;;;1.05;;
70787;SDS011;68385;47.752;19.100;2023-07-16T03:54:04;1.40;;;0.40;;
70787;SDS011;68385;47.752;19.100;2023-07-16T03:57:06;1.10;;;0.30;;
70787;SDS011;68385;47.752;19.100;2023-07-16T04:00:08;1.70;;;0.80;;
70787;SDS011;68385;47.752;19.100;2023-07-16T04:03:11;1.57;;;0.60;;
70787;SDS011;68385;47.752;19.100;2023-07-16T04:06:13;1.80;;;0.60;;
70787;SDS011;68385;47.752;19.100;2023-07-16T04:09:15;1.27;;;0.30;;
70787;SDS011;68385;47.752;19.100;2023-07-16T04:12:17;1.90;;;0.70;;
70787;SDS011;68385;47.752;19.100;2023-07-16T04:15:19;1.83;;;0.70;;
70787;SDS011;68385;47.752;19.100;2023-07-16T04:18:21;1.43;;;0.50;;
70787;SDS011;68385;47.752;19.100;2023-07-16T04:21:23;2.58;;;0.88;;
70787;SDS011;68385;47.752;19.100;2023-07-16T04:24:25;1.62;;;0.60;;
70787;SDS011;68385;47.752;19.100;2023-07-16T04:27:28;2.22;;;0.73;;
70787;SDS011;68385;47.752;19.100;2023-07-16T04:30:30;1.80;;;0.67;;
70787;SDS011;68385;47.752;19.100;2023-07-16T04:33:32;3.57;;;0.93;;
70787;SDS011;68385;47.752;19.100;2023-07-16T04:36:34;2.30;;;0.88;;
70787;SDS011;68385;47.752;19.100;2023-07-16T04:39:36;1.60;;;0.55;;
70787;SDS011;68385;47.752;19.100;2023-07-16T04:42:38;8.25;;;1.00;;
70787;SDS011;68385;47.752;19.100;2023-07-16T04:45:40;3.10;;;1.23;;
70787;SDS011;68385;47.752;19.100;2023-07-16T04:48:42;2.20;;;0.70;;
70787;SDS011;68385;47.752;19.100;2023-07-16T04:51:43;2.53;;;0.70;;
70787;SDS011;68385;47.752;19.100;2023-07-16T04:54:45;2.12;;;0.70;;
70787;SDS011;68385;47.752;19.100;2023-07-16T04:57:47;2.70;;;0.88;;
70787;SDS011;68385;47.752;19.100;2023-07-16T05:00:49;2.17;;;0.90;;
70787;SDS011;68385;47.752;19.100;2023-07-16T05:03:51;2.40;;;0.80;;
70787;SDS011;68385;47.752;19.100;2023-07-16T05:06:53;1.90;;;0.88;;
70787;SDS011;68385;47.752;19.100;2023-07-16T05:09:55;1.65;;;0.70;;
70787;SDS011;68385;47.752;19.100;2023-07-16T05:12:57;1.60;;;0.60;;
70787;SDS011;68385;47.752;19.100;2023-07-16T05:15:59;1.60;;;0.67;;
70787;SDS011;68385;47.752;19.100;2023-07-16T05:19:01;2.30;;;1.10;;
70787;SDS011;68385;47.752;19.100;2023-07-16T05:22:02;1.58;;;0.70;;
70787;SDS011;68385;47.752;19.100;2023-07-16T05:25:04;1.37;;;0.40;;
70787;SDS011;68385;47.752;19.100;2023-07-16T05:28:07;1.45;;;0.50;;
70787;SDS011;68385;47.752;19.100;2023-07-16T05:31:08;3.00;;;1.07;;
70787;SDS011;68385;47.752;19.100;2023-07-16T05:34:10;1.90;;;0.60;;
70787;SDS011;68385;47.752;19.100;2023-07-16T05:37:12;2.10;;;0.80;;
70787;SDS011;68385;47.752;19.100;2023-07-16T05:40:14;1.60;;;0.50;;
70787;SDS011;68385;47.752;19.100;2023-07-16T05:43:16;1.60;;;0.60;;
70787;SDS011;68385;47.752;19.100;2023-07-16T05:46:18;2.03;;;0.70;;
70787;SDS011;68385;47.752;19.100;2023-07-16T05:49:21;1.50;;;0.50;;
70787;SDS011;68385;47.752;19.100;2023-07-16T05:52:23;1.60;;;0.62;;
70787;SDS011;68385;47.752;19.100;2023-07-16T05:55:24;2.97;;;0.82;;
70787;SDS011;68385;47.752;19.100;2023-07-16T05:58:26;2.03;;;0.85;;
70787;SDS011;68385;47.752;19.100;2023-07-16T06:01:29;1.53;;;0.60;;
70787;SDS011;68385;47.752;19.100;2023-07-16T06:04:31;1.80;;;0.77;;
70787;SDS011;68385;47.752;19.100;2023-07-16T06:07:32;1.70;;;0.60;;
70787;SDS011;68385;47.752;19.100;2023-07-16T06:10:34;2.50;;;0.75;;
70787;SDS011;68385;47.752;19.100;2023-07-16T06:13:36;1.60;;;0.70;;
70787;SDS011;68385;47.752;19.100;2023-07-16T06:16:38;2.20;;;0.77;;
70787;SDS011;68385;47.752;19.100;2023-07-16T06:19:40;1.50;;;0.50;;
70787;SDS011;68385;47.752;19.100;2023-07-16T06:22:42;1.42;;;0.50;;
70787;SDS011;68385;47.752;19.100;2023-07-16T06:25:44;2.10;;;0.82;;
70787;SDS011;68385;47.752;19.100;2023-07-16T06:28:46;1.67;;;0.60;;
70787;SDS011;68385;47.752;19.100;2023-07-16T06:31:57;2.43;;;0.70;;
70787;SDS011;68385;47.752;19.100;2023-07-16T06:35:00;2.20;;;0.90;;
70787;SDS011;68385;47.752;19.100;2023-07-16T06:38:01;1.58;;;0.55;;
70787;SDS011;68385;47.752;19.100;2023-07-16T06:41:04;2.65;;;0.85;;
70787;SDS011;68385;47.752;19.100;2023-07-16T06:44:06;2.17;;;0.98;;
70787;SDS011;68385;47.752;19.100;2023-07-16T06:47:07;1.97;;;0.80;;
70787;SDS011;68385;47.752;19.100;2023-07-16T06:50:09;1.80;;;0.70;;
70787;SDS011;68385;47.752;19.100;2023-07-16T06:53:11;3.35;;;0.93;;
70787;SDS011;68385;47.752;19.100;2023-07-16T06:56:13;1.95;;;0.73;;
70787;SDS011;68385;47.752;19.100;2023-07-16T06:59:16;1.80;;;0.73;;
70787;SDS011;68385;47.752;19.100;2023-07-16T07:02:18;3.27;;;1.23;;
70787;SDS011;68385;47.752;19.100;2023-07-16T07:05:20;1.93;;;1.00;;
70787;SDS011;68385;47.752;19.100;2023-07-16T07:08:22;2.03;;;1.08;;
70787;SDS011;68385;47.752;19.100;2023-07-16T07:11:24;1.80;;;0.85;;
70787;SDS011;68385;47.752;19.100;2023-07-16T07:14:26;2.10;;;1.08;;
70787;SDS011;68385;47.752;19.100;2023-07-16T07:17:28;5.87;;;1.13;;
70787;SDS011;68385;47.752;19.100;2023-07-16T07:20:30;2.00;;;0.87;;
70787;SDS011;68385;47.752;19.100;2023-07-16T07:23:32;3.00;;;1.65;;
70787;SDS011;68385;47.752;19.100;2023-07-16T07:26:34;2.05;;;1.05;;
70787;SDS011;68385;47.752;19.100;2023-07-16T07:29:36;2.65;;;1.62;;
70787;SDS011;68385;47.752;19.100;2023-07-16T07:32:38;1.90;;;1.00;;
70787;SDS011;68385;47.752;19.100;2023-07-16T07:35:43;1.80;;;0.93;;
70787;SDS011;68385;47.752;19.100;2023-07-16T07:38:45;2.53;;;1.55;;
70787;SDS011;68385;47.752;19.100;2023-07-16T07:41:47;2.62;;;1.40;;
70787;SDS011;68385;47.752;19.100;2023-07-16T07:44:49;2.05;;;0.98;;
70787;SDS011;68385;47.752;19.100;2023-07-16T07:47:51;2.13;;;1.07;;
70787;SDS011;68385;47.752;19.100;2023-07-16T07:50:53;3.17;;;1.40;;
70787;SDS011;68385;47.752;19.100;2023-07-16T07:53:55;2.08;;;0.98;;
70787;SDS011;68385;47.752;19.100;2023-07-16T07:56:57;2.50;;;1.00;;
70787;SDS011;68385;47.752;19.100;2023-07-16T08:00:06;1.83;;;0.90;;
70787;SDS011;68385;47.752;19.100;2023-07-16T08:03:13;1.93;;;1.07;;
70787;SDS011;68385;47.752;19.100;2023-07-16T08:06:15;2.37;;;1.23;;
70787;SDS011;68385;47.752;19.100;2023-07-16T08:09:17;2.40;;;1.17;;
70787;SDS011;68385;47.752;19.100;2023-07-16T08:12:19;2.28;;;1.23;;
70787;SDS011;68385;47.752;19.100;2023-07-16T08:15:21;2.30;;;1.40;;
70787;SDS011;68385;47.752;19.100;2023-07-16T08:18:23;2.57;;;1.27;;
70787;SDS011;68385;47.752;19.100;2023-07-16T08:21:25;2.63;;;1.13;;
70787;SDS011;68385;47.752;19.100;2023-07-16T08:24:27;1.87;;;1.05;;
70787;SDS011;68385;47.752;19.100;2023-07-16T08:27:29;2.20;;;1.27;;
70787;SDS011;68385;47.752;19.100;2023-07-16T08:30:32;2.05;;;1.25;;
70787;SDS011;68385;47.752;19.100;2023-07-16T08:33:34;2.20;;;1.27;;
70787;SDS011;68385;47.752;19.100;2023-07-16T08:36:36;3.30;;;1.80;;
70787;SDS011;68385;47.752;19.100;2023-07-16T08:39:39;4.20;;;1.62;;
70787;SDS011;68385;47.752;19.100;2023-07-16T08:42:43;2.30;;;1.35;;
70787;SDS011;68385;47.752;19.100;2023-07-16T08:45:46;2.78;;;1.80;;
70787;SDS011;68385;47.752;19.100;2023-07-16T08:48:50;2.10;;;1.20;;
70787;SDS011;68385;47.752;19.100;2023-07-16T08:51:52;2.73;;;1.53;;
70787;SDS011;68385;47.752;19.100;2023-07-16T08:54:56;2.80;;;1.75;;
70787;SDS011;68385;47.752;19.100;2023-07-16T08:57:58;2.80;;;1.20;;
70787;SDS011;68385;47.752;19.100;2023-07-16T09:01:00;3.08;;;1.58;;
70787;SDS011;68385;47.752;19.100;2023-07-16T09:04:03;8.43;;;2.22;;
70787;SDS011;68385;47.752;19.100;2023-07-16T09:07:05;2.37;;;1.60;;
70787;SDS011;68385;47.752;19.100;2023-07-16T09:10:07;2.45;;;1.40;;
70787;SDS011;68385;47.752;19.100;2023-07-16T09:13:10;2.75;;;1.77;;
70787;SDS011;68385;47.752;19.100;2023-07-16T09:16:12;2.85;;;1.80;;
70787;SDS011;68385;47.752;19.100;2023-07-16T09:19:14;2.65;;;1.90;;
70787;SDS011;68385;47.752;19.100;2023-07-16T09:22:19;2.70;;;1.90;;
70787;SDS011;68385;47.752;19.100;2023-07-16T09:25:30;2.50;;;1.50;;
70787;SDS011;68385;47.752;19.100;2023-07-16T09:28:33;2.58;;;1.70;;
70787;SDS011;68385;47.752;19.100;2023-07-16T09:31:35;2.30;;;1.58;;
70787;SDS011;68385;47.752;19.100;2023-07-16T09:34:37;2.87;;;1.98;;
70787;SDS011;68385;47.752;19.100;2023-07-16T09:37:39;2.40;;;1.40;;
70787;SDS011;68385;47.752;19.100;2023-07-16T09:40:41;2.40;;;1.48;;
70787;SDS011;68385;47.752;19.100;2023-07-16T09:43:47;3.72;;;2.15;;
70787;SDS011;68385;47.752;19.100;2023-07-16T09:46:48;3.47;;;2.00;;
70787;SDS011;68385;47.752;19.100;2023-07-16T09:49:51;2.47;;;1.58;;
70787;SDS011;68385;47.752;19.100;2023-07-16T09:52:52;2.90;;;2.20;;
70787;SDS011;68385;47.752;19.100;2023-07-16T09:55:55;2.37;;;1.67;;
70787;SDS011;68385;47.752;19.100;2023-07-16T09:58:57;4.10;;;2.17;;
70787;SDS011;68385;47.752;19.100;2023-07-16T10:02:00;3.15;;;2.20;;
70787;SDS011;68385;47.752;19.100;2023-07-16T10:05:15;4.90;;;1.80;;
70787;SDS011;68385;47.752;19.100;2023-07-16T10:08:22;2.90;;;1.93;;
70787;SDS011;68385;47.752;19.100;2023-07-16T10:11:24;2.45;;;1.62;;
70787;SDS011;68385;47.752;19.100;2023-07-16T10:14:26;2.35;;;1.48;;
70787;SDS011;68385;47.752;19.100;2023-07-16T10:17:29;3.75;;;2.47;;
70787;SDS011;68385;47.752;19.100;2023-07-16T10:20:33;2.67;;;1.90;;
70787;SDS011;68385;47.752;19.100;2023-07-16T10:23:40;2.80;;;2.00;;
70787;SDS011;68385;47.752;19.100;2023-07-16T10:26:43;2.92;;;2.20;;
70787;SDS011;68385;47.752;19.100;2023-07-16T10:29:45;2.50;;;1.80;;
70787;SDS011;68385;47.752;19.100;2023-07-16T10:32:46;3.33;;;2.30;;
70787;SDS011;68385;47.752;19.100;2023-07-16T10:35:48;3.90;;;2.30;;
70787;SDS011;68385;47.752;19.100;2023-07-16T10:38:50;2.50;;;1.90;;
70787;SDS011;68385;47.752;19.100;2023-07-16T10:41:52;5.87;;;3.35;;
70787;SDS011;68385;47.752;19.100;2023-07-16T10:44:57;2.85;;;2.03;;
70787;SDS011;68385;47.752;19.100;2023-07-16T10:48:04;3.22;;;2.37;;
70787;SDS011;68385;47.752;19.100;2023-07-16T10:51:06;2.90;;;2.00;;
70787;SDS011;68385;47.752;19.100;2023-07-16T10:54:08;3.90;;;2.70;;
70787;SDS011;68385;47.752;19.100;2023-07-16T10:57:10;3.10;;;2.35;;
70787;SDS011;68385;47.752;19.100;2023-07-16T11:00:13;4.43;;;2.10;;
70787;SDS011;68385;47.752;19.100;2023-07-16T11:04:35;3.03;;;2.15;;
70787;SDS011;68385;47.752;19.100;2023-07-16T11:07:38;3.12;;;2.20;;
70787;SDS011;68385;47.752;19.100;2023-07-16T11:10:40;3.22;;;2.08;;
70787;SDS011;68385;47.752;19.100;2023-07-16T11:13:43;3.67;;;2.20;;
70787;SDS011;68385;47.752;19.100;2023-07-16T11:16:49;3.12;;;2.00;;
70787;SDS011;68385;47.752;19.100;2023-07-16T11:19:51;2.90;;;2.22;;
70787;SDS011;68385;47.752;19.100;2023-07-16T11:22:53;3.00;;;2.30;;
70787;SDS011;68385;47.752;19.100;2023-07-16T11:25:56;3.58;;;2.80;;
70787;SDS011;68385;47.752;19.100;2023-07-16T11:28:57;3.00;;;2.10;;
70787;SDS011;68385;47.752;19.100;2023-07-16T11:31:59;2.97;;;2.10;;
70787;SDS011;68385;47.752;19.100;2023-07-16T11:35:05;3.20;;;2.00;;
70787;SDS011;68385;47.752;19.100;2023-07-16T11:38:08;2.40;;;1.70;;
70787;SDS011;68385;47.752;19.100;2023-07-16T11:41:09;3.05;;;2.35;;
70787;SDS011;68385;47.752;19.100;2023-07-16T11:44:11;3.77;;;2.80;;
70787;SDS011;68385;47.752;19.100;2023-07-16T11:47:14;3.40;;;2.40;;
70787;SDS011;68385;47.752;19.100;2023-07-16T11:50:16;5.28;;;2.58;;
70787;SDS011;68385;47.752;19.100;2023-07-16T11:53:19;3.17;;;2.25;;
70787;SDS011;68385;47.752;19.100;2023-07-16T11:56:20;3.10;;;2.23;;
70787;SDS011;68385;47.752;19.100;2023-07-16T11:59:23;2.77;;;2.03;;
70787;SDS011;68385;47.752;19.100;2023-07-16T12:02:25;4.05;;;2.42;;
70787;SDS011;68385;47.752;19.100;2023-07-16T12:05:28;4.75;;;2.70;;
70787;SDS011;68385;47.752;19.100;2023-07-16T12:08:50;3.20;;;2.10;;
70787;SDS011;68385;47.752;19.100;2023-07-16T12:11:52;3.17;;;2.10;;
70787;SDS011;68385;47.752;19.100;2023-07-16T12:14:54;2.83;;;1.90;;
70787;SDS011;68385;47.752;19.100;2023-07-16T12:17:55;3.45;;;2.12;;
70787;SDS011;68385;47.752;19.100;2023-07-16T12:20:58;2.95;;;1.98;;
70787;SDS011;68385;47.752;19.100;2023-07-16T12:23:59;3.33;;;2.37;;
70787;SDS011;68385;47.752;19.100;2023-07-16T12:27:01;2.83;;;2.03;;
70787;SDS011;68385;47.752;19.100;2023-07-16T12:30:03;2.87;;;1.77;;
70787;SDS011;68385;47.752;19.100;2023-07-16T12:33:06;3.58;;;2.20;;
70787;SDS011;68385;47.752;19.100;2023-07-16T12:36:08;3.28;;;2.45;;
70787;SDS011;68385;47.752;19.100;2023-07-16T12:39:10;2.80;;;1.83;;
70787;SDS011;68385;47.752;19.100;2023-07-16T12:42:12;2.97;;;1.80;;
70787;SDS011;68385;47.752;19.100;2023-07-16T12:45:14;3.40;;;1.87;;
70787;SDS011;68385;47.752;19.100;2023-07-16T12:48:16;3.17;;;2.17;;
70787;SDS011;68385;47.752;19.100;2023-07-16T12:51:18;3.53;;;2.08;;
70787;SDS011;68385;47.752;19.100;2023-07-16T12:54:20;2.65;;;1.87;;
70787;SDS011;68385;47.752;19.100;2023-07-16T12:57:22;8.37;;;2.57;;
70787;SDS011;68385;47.752;19.100;2023-07-16T13:00:24;2.50;;;1.73;;
70787;SDS011;68385;47.752;19.100;2023-07-16T13:03:26;2.60;;;1.83;;
70787;SDS011;68385;47.752;19.100;2023-07-16T13:06:28;3.78;;;2.55;;
70787;SDS011;68385;47.752;19.100;2023-07-16T13:09:30;5.03;;;2.50;;
70787;SDS011;68385;47.752;19.100;2023-07-16T13:12:32;2.65;;;1.83;;
70787;SDS011;68385;47.752;19.100;2023-07-16T13:15:34;2.47;;;1.63;;
70787;SDS011;68385;47.752;19.100;2023-07-16T13:18:36;2.78;;;1.80;;
70787;SDS011;68385;47.752;19.100;2023-07-16T13:21:38;2.50;;;1.73;;
70787;SDS011;68385;47.752;19.100;2023-07-16T13:24:40;2.53;;;1.70;;
70787;SDS011;68385;47.752;19.100;2023-07-16T13:27:42;2.75;;;1.75;;
70787;SDS011;68385;47.752;19.100;2023-07-16T13:30:44;2.63;;;1.83;;
70787;SDS011;68385;47.752;19.100;2023-07-16T13:33:46;2.58;;;1.75;;
70787;SDS011;68385;47.752;19.100;2023-07-16T13:36:48;2.72;;;1.87;;
70787;SDS011;68385;47.752;19.100;2023-07-16T13:39:49;3.03;;;2.25;;
70787;SDS011;68385;47.752;19.100;2023-07-16T13:42:51;3.15;;;2.10;;
70787;SDS011;68385;47.752;19.100;2023-07-16T13:45:54;2.50;;;1.60;;
70787;SDS011;68385;47.752;19.100;2023-07-16T13:48:56;2.50;;;1.58;;
70787;SDS011;68385;47.752;19.100;2023-07-16T13:52:00;3.03;;;2.00;;
70787;SDS011;68385;47.752;19.100;2023-07-16T13:55:02;2.60;;;1.77;;
70787;SDS011;68385;47.752;19.100;2023-07-16T13:58:05;2.83;;;1.97;;
70787;SDS011;68385;47.752;19.100;2023-07-16T14:01:07;3.37;;;1.70;;
70787;SDS011;68385;47.752;19.100;2023-07-16T14:04:09;2.33;;;1.60;;
70787;SDS011;68385;47.752;19.100;2023-07-16T14:07:11;2.97;;;1.83;;
70787;SDS011;68385;47.752;19.100;2023-07-16T14:10:13;2.53;;;1.90;;
70787;SDS011;68385;47.752;19.100;2023-07-16T14:13:15;3.47;;;2.22;;
70787;SDS011;68385;47.752;19.100;2023-07-16T14:16:17;3.63;;;2.10;;
70787;SDS011;68385;47.752;19.100;2023-07-16T14:19:20;3.17;;;2.05;;
70787;SDS011;68385;47.752;19.100;2023-07-16T14:22:22;2.70;;;1.58;;
70787;SDS011;68385;47.752;19.100;2023-07-16T14:25:28;2.35;;;1.30;;
70787;SDS011;68385;47.752;19.100;2023-07-16T14:28:29;2.20;;;1.33;;
70787;SDS011;68385;47.752;19.100;2023-07-16T14:31:32;2.20;;;1.40;;
70787;SDS011;68385;47.752;19.100;2023-07-16T14:34:34;2.40;;;1.50;;
70787;SDS011;68385;47.752;19.100;2023-07-16T14:37:36;2.40;;;1.40;;
70787;SDS011;68385;47.752;19.100;2023-07-16T14:40:38;3.33;;;2.08;;
70787;SDS011;68385;47.752;19.100;2023-07-16T14:43:40;2.90;;;1.60;;
70787;SDS011;68385;47.752;19.100;2023-07-16T14:46:42;3.03;;;2.03;;
70787;SDS011;68385;47.752;19.100;2023-07-16T14:49:44;3.28;;;1.70;;
70787;SDS011;68385;47.752;19.100;2023-07-16T14:52:46;3.20;;;1.60;;
70787;SDS011;68385;47.752;19.100;2023-07-16T14:55:48;3.37;;;1.80;;
70787;SDS011;68385;47.752;19.100;2023-07-16T14:58:51;2.85;;;1.48;;
70787;SDS011;68385;47.752;19.100;2023-07-16T15:01:53;3.33;;;1.60;;
70787;SDS011;68385;47.752;19.100;2023-07-16T15:04:55;2.08;;;1.20;;
70787;SDS011;68385;47.752;19.100;2023-07-16T15:07:56;2.90;;;1.42;;
70787;SDS011;68385;47.752;19.100;2023-07-16T15:11:01;2.10;;;1.30;;
70787;SDS011;68385;47.752;19.100;2023-07-16T15:14:03;2.57;;;1.70;;
70787;SDS011;68385;47.752;19.100;2023-07-16T15:17:05;3.33;;;1.77;;
70787;SDS011;68385;47.752;19.100;2023-07-16T15:20:07;2.37;;;1.62;;
70787;SDS011;68385;47.752;19.100;2023-07-16T15:23:10;4.25;;;1.73;;
70787;SDS011;68385;47.752;19.100;2023-07-16T15:26:12;2.05;;;1.02;;
70787;SDS011;68385;47.752;19.100;2023-07-16T15:29:15;4.07;;;2.40;;
70787;SDS011;68385;47.752;19.100;2023-07-16T15:32:17;2.10;;;0.93;;
70787;SDS011;68385;47.752;19.100;2023-07-16T15:35:19;2.50;;;1.37;;
70787;SDS011;68385;47.752;19.100;2023-07-16T15:38:21;2.37;;;1.55;;
70787;SDS011;68385;47.752;19.100;2023-07-16T15:41:23;2.45;;;1.35;;
70787;SDS011;68385;47.752;19.100;2023-07-16T15:44:28;2.60;;;1.30;;
70787;SDS011;68385;47.752;19.100;2023-07-16T15:47:30;2.30;;;1.50;;
70787;SDS011;68385;47.752;19.100;2023-07-16T15:50:32;2.70;;;1.70;;
70787;SDS011;68385;47.752;19.100;2023-07-16T15:53:34;1.98;;;1.12;;
70787;SDS011;68385;47.752;19.100;2023-07-16T15:56:36;2.10;;;1.35;;
70787;SDS011;68385;47.752;19.100;2023-07-16T15:59:38;2.40;;;1.50;;
70787;SDS011;68385;47.752;19.100;2023-07-16T16:02:40;3.40;;;1.43;;
70787;SDS011;68385;47.752;19.100;2023-07-16T16:05:46;2.72;;;1.80;;
70787;SDS011;68385;47.752;19.100;2023-07-16T16:08:49;2.28;;;1.40;;
70787;SDS011;68385;47.752;19.100;2023-07-16T16:11:52;2.80;;;1.60;;
70787;SDS011;68385;47.752;19.100;2023-07-16T16:14:54;3.90;;;2.07;;
70787;SDS011;68385;47.752;19.100;2023-07-16T16:17:56;3.23;;;2.00;;
70787;SDS011;68385;47.752;19.100;2023-07-16T16:20:58;2.22;;;1.30;;
70787;SDS011;68385;47.752;19.100;2023-07-16T16:24:00;2.40;;;1.60;;
70787;SDS011;68385;47.752;19.100;2023-07-16T16:27:02;2.90;;;1.60;;
70787;SDS011;68385;47.752;19.100;2023-07-16T16:30:05;3.53;;;1.92;;
70787;SDS011;68385;47.752;19.100;2023-07-16T16:33:07;2.37;;;1.37;;
70787;SDS011;68385;47.752;19.100;2023-07-16T16:36:10;2.00;;;1.12;;
70787;SDS011;68385;47.752;19.100;2023-07-16T16:39:14;3.03;;;1.92;;
70787;SDS011;68385;47.752;19.100;2023-07-16T16:42:17;2.50;;;1.85;;
70787;SDS011;68385;47.752;19.100;2023-07-16T16:45:20;2.40;;;1.40;;
70787;SDS011;68385;47.752;19.100;2023-07-16T16:48:22;2.30;;;1.40;;
70787;SDS011;68385;47.752;19.100;2023-07-16T16:51:25;2.30;;;1.15;;
70787;SDS011;68385;47.752;19.100;2023-07-16T16:54:27;3.15;;;2.10;;
70787;SDS011;68385;47.752;19.100;2023-07-16T16:57:33;2.58;;;1.48;;
70787;SDS011;68385;47.752;19.100;2023-07-16T17:00:35;2.60;;;1.12;;
70787;SDS011;68385;47.752;19.100;2023-07-16T17:03:37;2.67;;;1.43;;
70787;SDS011;68385;47.752;19.100;2023-07-16T17:06:39;2.30;;;1.20;;
70787;SDS011;68385;47.752;19.100;2023-07-16T17:09:43;2.30;;;1.40;;
70787;SDS011;68385;47.752;19.100;2023-07-16T17:12:50;2.53;;;1.62;;
70787;SDS011;68385;47.752;19.100;2023-07-16T17:15:51;3.85;;;2.37;;
70787;SDS011;68385;47.752;19.100;2023-07-16T17:18:53;3.40;;;2.07;;
70787;SDS011;68385;47.752;19.100;2023-07-16T17:21:56;2.75;;;1.50;;
70787;SDS011;68385;47.752;19.100;2023-07-16T17:24:58;4.57;;;2.05;;
70787;SDS011;68385;47.752;19.100;2023-07-16T17:28:00;2.72;;;1.45;;
70787;SDS011;68385;47.752;19.100;2023-07-16T17:31:02;2.87;;;1.42;;
70787;SDS011;68385;47.752;19.100;2023-07-16T17:34:04;3.10;;;1.87;;
70787;SDS011;68385;47.752;19.100;2023-07-16T17:37:07;3.78;;;1.73;;
70787;SDS011;68385;47.752;19.100;2023-07-16T17:40:10;2.65;;;1.50;;
70787;SDS011;68385;47.752;19.100;2023-07-16T17:43:16;2.65;;;1.60;;
70787;SDS011;68385;47.752;19.100;2023-07-16T17:46:18;4.20;;;1.55;;
70787;SDS011;68385;47.752;19.100;2023-07-16T17:49:20;2.70;;;1.57;;
70787;SDS011;68385;47.752;19.100;2023-07-16T17:52:23;4.28;;;2.65;;
70787;SDS011;68385;47.752;19.100;2023-07-16T17:55:24;3.55;;;1.90;;
70787;SDS011;68385;47.752;19.100;2023-07-16T17:58:26;3.92;;;1.80;;
70787;SDS011;68385;47.752;19.100;2023-07-16T18:01:28;2.70;;;1.70;;
70787;SDS011;68385;47.752;19.100;2023-07-16T18:04:33;2.60;;;1.40;;
70787;SDS011;68385;47.752;19.100;2023-07-16T18:07:35;2.85;;;1.55;;
70787;SDS011;68385;47.752;19.100;2023-07-16T18:10:38;3.42;;;2.03;;
70787;SDS011;68385;47.752;19.100;2023-07-16T18:13:40;2.12;;;1.12;;
70787;SDS011;68385;47.752;19.100;2023-07-16T18:16:42;2.20;;;1.23;;